Time;durP1;ratioP1;P1;durP2;ratioP2;P2;SDS_P1;SDS_P2;PMS_P1;PMS_P2;Temp;Humidity;BMP_temperature;BMP_pressure;BME280_temperature;BME280_humidity;BME280_pressure;Samples;Min_cycle;Max_cycle;Signal;HPM_P1;HPM_P2
2023/08/17 00:00:28;;;;;;;5.93;3.83;;;15.90;99.90;;;;;;4986637;28;95214;-30
2023/08/17 00:02:54;;;;;;;6.28;4.30;;;15.80;99.90;;;;;;5011327;28;95520;-35
2023/08/17 00:05:19;;;;;;;6.47;3.88;;;15.90;99.90;;;;;;4997399;28;93436;-35
2023/08/17 00:07:45;;;;;;;3.85;3.55;;;15.80;99.90;;;;;;4997866;28;92883;-33
2023/08/17 00:10:11;;;;;;;7.05;4.88;;;15.80;99.90;;;;;;5010668;28;95604;-32
2023/08/17 00:12:36;;;;;;;3.92;3.55;;;15.80;99.90;;;;;;4997888;28;94899;-34
2023/08/17 00:15:02;;;;;;;6.03;4.45;;;15.80;99.90;;;;;;4998342;28;93113;-31
2023/08/17 00:17:28;;;;;;;10.27;4.78;;;15.80;99.90;;;;;;4972619;28;93262;-29
2023/08/17 00:19:53;;;;;;;8.93;4.15;;;15.80;99.90;;;;;;4977982;28;95068;-32
2023/08/17 00:22:19;;;;;;;4.50;3.67;;;15.70;99.90;;;;;;4984707;28;94547;-33
2023/08/17 00:24:45;;;;;;;5.53;3.63;;;15.70;99.90;;;;;;4997769;28;93073;-34
2023/08/17 00:27:11;;;;;;;5.78;4.32;;;15.70;99.90;;;;;;4989953;28;94491;-31
2023/08/17 00:29:36;;;;;;;7.60;4.07;;;15.70;99.90;;;;;;4978129;28;94867;-35
2023/08/17 00:32:03;;;;;;;5.65;4.05;;;15.60;99.90;;;;;;4997886;28;94732;-32
2023/08/17 00:34:29;;;;;;;7.05;4.28;;;15.60;99.90;;;;;;4997625;28;95217;-32
2023/08/17 00:36:54;;;;;;;5.50;3.40;;;15.60;99.90;;;;;;5000680;28;95031;-38
2023/08/17 00:39:20;;;;;;;8.88;3.92;;;15.60;99.90;;;;;;4986595;28;94764;-33
2023/08/17 00:41:46;;;;;;;6.00;4.07;;;15.60;99.90;;;;;;4977924;28;94583;-37
2023/08/17 00:44:12;;;;;;;5.18;4.28;;;15.50;99.90;;;;;;4978189;28;93466;-36
2023/08/17 00:46:38;;;;;;;7.35;4.03;;;15.50;99.90;;;;;;4977969;28;92919;-36
2023/08/17 00:49:05;;;;;;;5.97;4.20;;;15.50;99.90;;;;;;4978903;28;95715;-34
2023/08/17 00:51:32;;;;;;;6.88;4.25;;;15.50;99.90;;;;;;4988437;28;95274;-33
2023/08/17 00:54:02;;;;;;;12.68;5.28;;;15.50;99.90;;;;;;4977869;28;94750;-32
2023/08/17 00:56:28;;;;;;;6.88;4.05;;;15.50;99.90;;;;;;4978122;28;92142;-32
2023/08/17 00:58:55;;;;;;;7.20;4.32;;;15.50;99.90;;;;;;4961610;28;94441;-36
2023/08/17 01:01:22;;;;;;;7.90;3.80;;;15.50;99.90;;;;;;4994792;28;94879;-35
2023/08/17 01:03:47;;;;;;;6.85;4.13;;;15.50;99.90;;;;;;4989807;28;92560;-33
2023/08/17 01:06:13;;;;;;;5.00;3.72;;;15.60;99.90;;;;;;4997192;28;93866;-37
2023/08/17 01:08:41;;;;;;;7.32;3.90;;;15.60;99.90;;;;;;4983839;28;94772;-33
2023/08/17 01:11:36;;;;;;;5.65;3.85;;;15.60;99.90;;;;;;4997397;28;95731;-32
2023/08/17 01:14:38;;;;;;;6.63;4.47;;;15.60;99.90;;;;;;5007878;28;95611;-32
2023/08/17 01:17:14;;;;;;;4.15;2.88;;;15.60;99.90;;;;;;4996180;28;94198;-30
2023/08/17 01:19:42;;;;;;;5.30;3.42;;;15.60;99.90;;;;;;4995791;28;94506;-32
2023/08/17 01:22:10;;;;;;;7.63;3.37;;;15.60;99.90;;;;;;4993395;28;95177;-33
2023/08/17 01:24:36;;;;;;;;;;;15.70;99.90;;;;;;4996148;28;93581;-31
2023/08/17 01:27:02;;;;;;;3.22;3.00;;;15.60;99.90;;;;;;4999295;28;92293;-33
2023/08/17 01:29:27;;;;;;;5.10;3.42;;;15.60;99.90;;;;;;5002096;28;94490;-31
2023/08/17 01:32:06;;;;;;;4.50;3.15;;;15.70;99.90;;;;;;4993385;28;94721;-32
2023/08/17 01:34:40;;;;;;;7.60;3.95;;;15.70;99.90;;;;;;4993952;28;93878;-35
2023/08/17 01:37:08;;;;;;;5.13;3.60;;;15.70;99.90;;;;;;4998856;28;92751;-33
2023/08/17 01:39:43;;;;;;;5.05;3.15;;;15.70;99.90;;;;;;4993782;28;96104;-33
2023/08/17 01:42:09;;;;;;;3.67;3.13;;;15.80;99.90;;;;;;4981727;28;94962;-32
2023/08/17 01:44:35;;;;;;;7.60;3.63;;;15.80;99.90;;;;;;4996692;28;94163;-31
2023/08/17 01:47:01;;;;;;;4.22;3.03;;;15.70;99.90;;;;;;4991003;28;92183;-33
2023/08/17 01:49:26;;;;;;;4.47;2.92;;;15.70;99.90;;;;;;5002029;28;94611;-34
2023/08/17 01:51:52;;;;;;;4.22;2.75;;;15.70;99.90;;;;;;4978241;28;93919;-34
2023/08/17 01:54:18;;;;;;;3.45;3.15;;;15.80;99.90;;;;;;4996403;28;93743;-31
2023/08/17 01:56:44;;;;;;;6.60;3.22;;;15.80;99.90;;;;;;4996385;28;91405;-32
2023/08/17 01:59:09;;;;;;;4.72;2.95;;;15.80;99.90;;;;;;4995822;28;95427;-33
2023/08/17 02:01:35;;;;;;;9.65;3.63;;;15.80;99.90;;;;;;4981009;28;94720;-32
2023/08/17 02:04:02;;;;;;;3.60;3.28;;;15.80;99.90;;;;;;4982046;28;93476;-33
2023/08/17 02:06:29;;;;;;;8.13;3.40;;;15.70;99.90;;;;;;4985484;28;92225;-31
2023/08/17 02:08:54;;;;;;;6.07;3.40;;;15.70;99.90;;;;;;4984024;28;94616;-34
2023/08/17 02:11:20;;;;;;;5.40;2.85;;;15.80;99.90;;;;;;4978671;28;94756;-34
2023/08/17 02:13:45;;;;;;;8.27;3.25;;;15.80;99.90;;;;;;4987075;28;93432;-33
2023/08/17 02:16:11;;;;;;;4.93;3.20;;;15.70;99.90;;;;;;4978889;28;92988;-32
2023/08/17 02:18:37;;;;;;;8.82;3.50;;;15.80;99.90;;;;;;4979851;28;94876;-32
2023/08/17 02:21:03;;;;;;;4.50;2.92;;;15.80;99.90;;;;;;4978200;28;93973;-31
2023/08/17 02:23:28;;;;;;;5.10;3.05;;;15.80;99.90;;;;;;4991297;28;92968;-31
2023/08/17 02:25:54;;;;;;;4.50;3.22;;;15.90;99.90;;;;;;4978464;28;93641;-33
2023/08/17 02:28:20;;;;;;;5.82;2.95;;;15.80;99.90;;;;;;4980457;28;94326;-38
2023/08/17 02:30:46;;;;;;;5.65;3.20;;;15.80;99.90;;;;;;4977682;28;95760;-36
2023/08/17 02:33:12;;;;;;;5.53;3.42;;;15.90;99.90;;;;;;4990792;28;93390;-32
2023/08/17 02:35:37;;;;;;;5.25;3.40;;;15.90;99.90;;;;;;4978798;28;94976;-33
2023/08/17 02:38:03;;;;;;;4.20;3.20;;;15.90;99.90;;;;;;5000989;28;95322;-30
2023/08/17 02:40:29;;;;;;;9.05;2.92;;;15.90;99.90;;;;;;4995649;28;95337;-32
2023/08/17 02:42:54;;;;;;;3.67;3.15;;;15.90;99.90;;;;;;4987966;28;93238;-32
2023/08/17 02:45:20;;;;;;;3.70;3.40;;;15.90;99.90;;;;;;4982579;28;92160;-32
2023/08/17 02:47:46;;;;;;;4.10;3.17;;;15.90;99.90;;;;;;4988642;28;94773;-32
2023/08/17 02:50:11;;;;;;;5.50;3.30;;;15.90;99.90;;;;;;4981964;28;93685;-30
2023/08/17 02:52:37;;;;;;;3.38;3.08;;;15.90;99.90;;;;;;4984812;28;93472;-34
2023/08/17 02:55:03;;;;;;;6.43;3.67;;;15.90;99.90;;;;;;4989996;28;94715;-31
2023/08/17 02:57:29;;;;;;;7.35;3.55;;;15.90;99.90;;;;;;4966762;28;94312;-34
2023/08/17 02:59:54;;;;;;;5.20;3.33;;;15.80;99.90;;;;;;4989420;28;96173;-32
2023/08/17 03:02:20;;;;;;;5.68;3.50;;;15.80;99.90;;;;;;5003530;28;93916;-33
2023/08/17 03:04:45;;;;;;;8.52;3.47;;;15.80;99.90;;;;;;5003775;28;93167;-35
2023/08/17 03:07:11;;;;;;;8.25;4.10;;;15.80;99.90;;;;;;5002133;28;94363;-35
2023/08/17 03:09:37;;;;;;;4.13;3.13;;;15.80;99.90;;;;;;5004095;28;94671;-34
2023/08/17 03:12:03;;;;;;;4.22;3.65;;;15.80;99.90;;;;;;5001645;28;93582;-33
2023/08/17 03:14:28;;;;;;;7.90;4.18;;;15.70;99.90;;;;;;5003199;28;93810;-32
2023/08/17 03:16:54;;;;;;;10.60;3.95;;;15.70;99.90;;;;;;5002879;28;96518;-32
2023/08/17 03:19:20;;;;;;;13.07;4.90;;;15.80;99.90;;;;;;5005951;28;94530;-32
2023/08/17 03:21:46;;;;;;;6.45;3.83;;;15.80;99.90;;;;;;5005822;28;94175;-34
2023/08/17 03:24:11;;;;;;;7.63;3.97;;;15.70;99.90;;;;;;5006585;28;93479;-35
2023/08/17 03:26:37;;;;;;;10.13;4.10;;;15.80;99.90;;;;;;5005071;28;94303;-34
2023/08/17 03:29:03;;;;;;;4.70;3.88;;;15.70;99.90;;;;;;5006359;28;94908;-33
2023/08/17 03:31:29;;;;;;;8.43;4.20;;;15.70;99.90;;;;;;5005325;28;93739;-33
2023/08/17 03:33:55;;;;;;;9.02;4.68;;;15.70;99.90;;;;;;5007475;28;92524;-34
2023/08/17 03:36:21;;;;;;;6.35;3.50;;;15.70;99.90;;;;;;5005308;28;94821;-36
2023/08/17 03:38:47;;;;;;;5.50;3.90;;;15.80;99.90;;;;;;5005796;28;95088;-33
2023/08/17 03:41:12;;;;;;;8.95;4.50;;;15.80;99.90;;;;;;4987579;28;95029;-32
2023/08/17 03:43:38;;;;;;;6.30;4.63;;;15.70;99.90;;;;;;5004874;28;93436;-32
2023/08/17 03:46:05;;;;;;;16.55;5.38;;;15.80;99.90;;;;;;5005625;28;94717;-36
2023/08/17 03:48:31;;;;;;;5.88;4.47;;;15.90;99.90;;;;;;5004631;28;94182;-34
2023/08/17 03:50:56;;;;;;;8.27;4.30;;;15.90;99.90;;;;;;5005125;28;92703;-31
2023/08/17 03:53:22;;;;;;;11.20;5.03;;;15.80;99.90;;;;;;5005043;28;94807;-32
2023/08/17 03:55:51;;;;;;;5.60;4.30;;;15.90;99.90;;;;;;5004327;28;94871;-32
2023/08/17 03:58:18;;;;;;;8.05;4.45;;;15.90;99.90;;;;;;5004137;28;94109;-36
2023/08/17 04:00:52;;;;;;;8.10;4.72;;;15.90;99.90;;;;;;4995452;28;94907;-31
2023/08/17 04:03:19;;;;;;;5.72;4.13;;;15.90;99.90;;;;;;4998006;28;94131;-32
2023/08/17 04:05:44;;;;;;;8.10;5.80;;;15.90;99.90;;;;;;4999660;28;96050;-35
2023/08/17 04:08:10;;;;;;;12.02;4.47;;;15.90;99.90;;;;;;5002882;28;96140;-31
2023/08/17 04:10:36;;;;;;;6.15;4.40;;;15.80;99.90;;;;;;5000604;28;92593;-35
2023/08/17 04:13:01;;;;;;;5.57;4.85;;;15.90;99.90;;;;;;5002642;28;93142;-33
2023/08/17 04:15:27;;;;;;;8.52;4.35;;;15.90;99.90;;;;;;5011387;28;94523;-34
2023/08/17 04:17:53;;;;;;;4.32;3.53;;;15.90;99.90;;;;;;5017323;28;94578;-33
2023/08/17 04:20:18;;;;;;;5.40;4.43;;;15.90;99.90;;;;;;5017673;28;93247;-33
2023/08/17 04:22:44;;;;;;;5.78;4.43;;;15.90;99.90;;;;;;5017482;28;92888;-30
2023/08/17 04:25:10;;;;;;;6.30;4.35;;;15.90;99.90;;;;;;5006535;28;94341;-34
2023/08/17 04:27:36;;;;;;;7.57;4.10;;;15.90;99.90;;;;;;5001443;28;94835;-36
2023/08/17 04:30:02;;;;;;;7.03;4.55;;;16.00;99.90;;;;;;5008214;28;93078;-31
2023/08/17 04:32:28;;;;;;;6.43;4.00;;;15.90;99.90;;;;;;5015915;28;94559;-30
2023/08/17 04:34:53;;;;;;;5.30;3.58;;;15.90;99.90;;;;;;5005921;28;94267;-38
2023/08/17 04:37:19;;;;;;;4.03;3.70;;;15.90;99.90;;;;;;5002205;28;94001;-30
2023/08/17 04:39:45;;;;;;;8.95;4.55;;;15.90;99.90;;;;;;4999425;28;93606;-31
2023/08/17 04:42:10;;;;;;;4.93;4.00;;;15.90;99.90;;;;;;4998503;28;94039;-33
2023/08/17 04:44:36;;;;;;;5.35;3.67;;;15.90;99.90;;;;;;4998025;28;95080;-32
2023/08/17 04:47:02;;;;;;;13.80;5.18;;;15.90;99.90;;;;;;4998122;28;94486;-37
2023/08/17 04:49:28;;;;;;;7.57;3.75;;;15.90;99.90;;;;;;4997566;28;93532;-33
2023/08/17 04:51:53;;;;;;;7.63;4.68;;;15.90;99.90;;;;;;4997588;28;92987;-30
2023/08/17 04:54:19;;;;;;;5.63;3.90;;;15.90;99.90;;;;;;4997262;28;95363;-33
2023/08/17 04:56:45;;;;;;;6.13;4.10;;;15.90;99.90;;;;;;4998055;28;94984;-34
2023/08/17 04:59:11;;;;;;;4.50;4.03;;;15.90;99.90;;;;;;4998256;28;94385;-31
2023/08/17 05:01:37;;;;;;;7.07;4.00;;;16.00;99.90;;;;;;4990075;28;94290;-34
2023/08/17 05:04:03;;;;;;;8.68;4.22;;;16.00;99.90;;;;;;4990448;28;94595;-36
2023/08/17 05:06:29;;;;;;;6.43;3.70;;;16.00;99.90;;;;;;4993881;28;92705;-30
2023/08/17 05:08:55;;;;;;;6.50;3.83;;;16.00;99.90;;;;;;4993776;28;93418;-35
2023/08/17 05:11:20;;;;;;;4.07;3.17;;;16.00;99.90;;;;;;5000580;28;93511;-37
2023/08/17 05:13:46;;;;;;;11.85;4.00;;;16.00;99.90;;;;;;4995569;28;94679;-34
2023/08/17 05:16:11;;;;;;;6.80;3.80;;;16.00;99.90;;;;;;4996366;28;93528;-36
2023/08/17 05:18:37;;;;;;;6.93;3.20;;;16.00;99.90;;;;;;4971611;28;95482;-36
2023/08/17 05:21:03;;;;;;;7.70;3.97;;;16.00;99.90;;;;;;4985555;28;93156;-33
2023/08/17 05:23:28;;;;;;;4.25;3.72;;;16.00;99.90;;;;;;4975336;28;95125;-35
2023/08/17 05:25:54;;;;;;;11.73;3.83;;;16.00;99.90;;;;;;4974438;28;94157;-36
2023/08/17 05:28:20;;;;;;;7.15;3.78;;;16.00;99.90;;;;;;4976967;28;94205;-33
2023/08/17 05:30:46;;;;;;;7.20;3.95;;;16.00;99.90;;;;;;4988102;28;93097;-32
2023/08/17 05:33:12;;;;;;;8.23;4.72;;;16.00;99.90;;;;;;4974722;28;94784;-30
2023/08/17 05:35:37;;;;;;;8.23;3.33;;;16.00;99.90;;;;;;4976062;28;94498;-35
2023/08/17 05:38:03;;;;;;;6.88;3.72;;;16.10;99.90;;;;;;4998673;28;93766;-34
2023/08/17 05:40:32;;;;;;;6.03;3.83;;;16.10;99.90;;;;;;4994391;28;94421;-38
2023/08/17 05:42:58;;;;;;;5.18;3.42;;;16.10;99.90;;;;;;4993117;28;95679;-31
2023/08/17 05:45:24;;;;;;;6.45;3.28;;;16.10;99.90;;;;;;4992051;28;95470;-31
2023/08/17 05:47:49;;;;;;;6.28;3.13;;;16.10;99.90;;;;;;4993803;28;92105;-34
2023/08/17 05:50:15;;;;;;;5.40;3.28;;;16.20;99.90;;;;;;5004596;28;94614;-32
2023/08/17 05:52:41;;;;;;;5.40;3.75;;;16.20;99.90;;;;;;4992633;28;95691;-32
2023/08/17 05:55:07;;;;;;;7.63;2.97;;;16.20;99.90;;;;;;4992568;28;94853;-35
2023/08/17 05:57:33;;;;;;;6.18;3.20;;;16.20;99.90;;;;;;4993760;28;93305;-32
2023/08/17 05:59:59;;;;;;;6.38;3.13;;;16.20;99.90;;;;;;4987850;28;93607;-35
2023/08/17 06:02:25;;;;;;;9.27;3.88;;;16.20;99.90;;;;;;4992516;28;94574;-34
2023/08/17 06:04:50;;;;;;;13.20;4.07;;;16.30;99.90;;;;;;4971878;28;94244;-30
2023/08/17 06:07:16;;;;;;;10.18;3.67;;;16.20;99.90;;;;;;4986792;28;95246;-36
2023/08/17 06:09:42;;;;;;;3.72;3.42;;;16.20;99.90;;;;;;4973367;28;93459;-36
2023/08/17 06:12:07;;;;;;;3.20;2.70;;;16.20;99.90;;;;;;4974308;28;94646;-33
2023/08/17 06:14:34;;;;;;;4.97;3.40;;;16.20;99.90;;;;;;4974494;28;95234;-32
2023/08/17 06:17:00;;;;;;;5.63;3.67;;;16.20;99.90;;;;;;4974213;28;94780;-32
2023/08/17 06:19:26;;;;;;;6.00;3.63;;;16.20;99.90;;;;;;4973989;28;93279;-35
2023/08/17 06:21:51;;;;;;;6.55;2.80;;;16.30;99.90;;;;;;4973672;28;94508;-31
2023/08/17 06:24:18;;;;;;;4.93;3.53;;;16.30;99.90;;;;;;4974524;28;94717;-32
2023/08/17 06:26:45;;;;;;;9.02;4.05;;;16.30;99.90;;;;;;4978784;28;94806;-30
2023/08/17 06:29:11;;;;;;;4.23;3.43;;;16.40;99.90;;;;;;4982270;28;93145;-33
2023/08/17 06:31:37;;;;;;;7.57;3.80;;;16.40;99.90;;;;;;4973391;28;95811;-35
2023/08/17 06:34:03;;;;;;;9.38;3.22;;;16.30;99.90;;;;;;4974439;28;95288;-30
2023/08/17 06:36:32;;;;;;;5.93;3.58;;;16.40;99.90;;;;;;4956876;28;92642;-32
2023/08/17 06:38:58;;;;;;;4.90;3.33;;;16.40;99.90;;;;;;5005629;28;92981;-31
2023/08/17 06:41:24;;;;;;;8.27;3.10;;;16.40;99.90;;;;;;4980430;28;94566;-31
2023/08/17 06:43:50;;;;;;;10.07;3.95;;;16.40;99.90;;;;;;4992527;28;94363;-34
2023/08/17 06:46:16;;;;;;;5.50;3.42;;;16.50;99.90;;;;;;4993141;28;95009;-36
2023/08/17 06:48:43;;;;;;;8.45;4.07;;;16.50;99.90;;;;;;4993472;28;92658;-32
2023/08/17 06:51:09;;;;;;;8.05;3.33;;;16.50;99.90;;;;;;4988875;28;95339;-35
2023/08/17 06:53:35;;;;;;;6.28;3.42;;;16.50;99.90;;;;;;4995875;28;95261;-32
2023/08/17 06:56:00;;;;;;;4.82;3.15;;;16.50;99.90;;;;;;4977907;28;94457;-32
2023/08/17 06:58:26;;;;;;;3.67;3.20;;;16.50;99.90;;;;;;4996403;28;92989;-33
2023/08/17 07:00:52;;;;;;;5.00;3.03;;;16.60;99.90;;;;;;5000478;28;93981;-36
2023/08/17 07:03:17;;;;;;;4.55;3.25;;;16.60;99.90;;;;;;4989285;28;94779;-33
2023/08/17 07:05:43;;;;;;;6.95;3.08;;;16.60;99.90;;;;;;4995396;28;92246;-32
2023/08/17 07:08:09;;;;;;;5.45;2.72;;;16.60;99.90;;;;;;4985904;28;93656;-32
2023/08/17 07:10:35;;;;;;;4.15;3.05;;;16.60;99.90;;;;;;4977761;28;95286;-37
2023/08/17 07:13:03;;;;;;;6.28;3.13;;;16.70;99.90;;;;;;4978604;28;94408;-33
2023/08/17 07:15:29;;;;;;;7.00;3.22;;;16.70;99.90;;;;;;4978381;28;93849;-34
2023/08/17 07:17:55;;;;;;;2.97;2.63;;;16.70;99.90;;;;;;4976894;28;93593;-32
2023/08/17 07:20:21;;;;;;;7.75;3.17;;;16.80;99.90;;;;;;4977114;28;95506;-32
2023/08/17 07:22:47;;;;;;;3.63;3.05;;;16.80;99.90;;;;;;4977389;28;96590;-34
2023/08/17 07:25:13;;;;;;;4.68;2.67;;;16.90;99.90;;;;;;4978443;28;94079;-36
2023/08/17 07:27:38;;;;;;;6.18;3.05;;;16.80;99.90;;;;;;4977712;28;92254;-32
2023/08/17 07:30:05;;;;;;;2.65;2.45;;;16.80;99.90;;;;;;4977709;28;94497;-33
2023/08/17 07:32:30;;;;;;;5.05;2.58;;;16.90;99.90;;;;;;4977622;28;95946;-32
2023/08/17 07:34:56;;;;;;;3.55;2.55;;;16.90;99.90;;;;;;4990178;28;94042;-33
2023/08/17 07:37:22;;;;;;;6.80;2.72;;;16.90;99.90;;;;;;4989818;28;92419;-36
2023/08/17 07:39:47;;;;;;;4.25;2.42;;;16.90;99.90;;;;;;5003190;28;94798;-33
2023/08/17 07:42:13;;;;;;;4.07;2.67;;;17.00;99.90;;;;;;5005697;28;94497;-36
2023/08/17 07:44:39;;;;;;;4.68;2.25;;;16.90;99.90;;;;;;4995818;28;95561;-31
2023/08/17 07:47:05;;;;;;;7.43;2.97;;;17.00;99.90;;;;;;4985082;28;94322;-33
2023/08/17 07:49:31;;;;;;;5.10;2.90;;;17.00;99.90;;;;;;4980115;28;94230;-37
2023/08/17 07:51:56;;;;;;;2.92;2.58;;;17.00;99.90;;;;;;4984698;28;94383;-35
2023/08/17 07:54:22;;;;;;;5.82;2.70;;;17.00;99.90;;;;;;4980795;28;95073;-37
2023/08/17 07:56:48;;;;;;;7.47;2.75;;;17.00;99.90;;;;;;4985232;28;93434;-31
2023/08/17 07:59:14;;;;;;;5.20;2.58;;;17.00;99.90;;;;;;4979776;28;94783;-36
2023/08/17 08:01:40;;;;;;;3.40;2.88;;;17.00;99.90;;;;;;4999927;28;94411;-31
2023/08/17 08:04:06;;;;;;;3.40;2.50;;;17.10;99.90;;;;;;4980251;28;94341;-35
2023/08/17 08:06:32;;;;;;;4.82;2.72;;;17.00;99.90;;;;;;4975385;28;92882;-34
2023/08/17 08:08:58;;;;;;;8.10;2.63;;;17.10;99.90;;;;;;4974284;28;95591;-34
2023/08/17 08:11:23;;;;;;;5.00;2.55;;;17.10;99.90;;;;;;4984545;28;96322;-34
2023/08/17 08:13:49;;;;;;;2.72;2.53;;;17.10;99.90;;;;;;5008653;28;92959;-32
2023/08/17 08:16:15;;;;;;;7.63;2.83;;;17.20;99.90;;;;;;4995404;28;92076;-33
2023/08/17 08:18:40;;;;;;;4.28;2.42;;;17.20;99.90;;;;;;4993735;28;95169;-30
2023/08/17 08:21:06;;;;;;;3.92;2.78;;;17.20;99.90;;;;;;5030073;22;94665;-35
2023/08/17 08:23:31;;;;;;;2.80;2.30;;;17.20;99.90;;;;;;4993791;28;94169;-31
2023/08/17 08:25:58;;;;;;;3.80;1.92;;;17.30;99.90;;;;;;4996146;28;91433;-34
2023/08/17 08:28:25;;;;;;;2.63;2.42;;;17.30;99.90;;;;;;4993488;28;94155;-31
2023/08/17 08:30:51;;;;;;;2.92;1.80;;;17.30;99.90;;;;;;4993948;28;92888;-37
2023/08/17 08:33:17;;;;;;;4.00;1.98;;;17.40;99.90;;;;;;4991869;28;94082;-34
2023/08/17 08:35:42;;;;;;;4.35;3.17;;;17.30;99.90;;;;;;4993349;28;94174;-31
2023/08/17 08:38:08;;;;;;;4.38;2.38;;;17.40;99.90;;;;;;4993792;28;94022;-33
2023/08/17 08:40:38;;;;;;;3.30;2.35;;;17.30;99.90;;;;;;4981630;28;94302;-32
2023/08/17 08:43:04;;;;;;;3.50;2.67;;;17.40;99.90;;;;;;4990739;28;94321;-32
2023/08/17 08:45:30;;;;;;;11.15;4.10;;;17.50;99.90;;;;;;4992135;28;94579;-34
2023/08/17 08:48:00;;;;;;;2.88;2.45;;;17.40;99.90;;;;;;4985552;28;94968;-33
2023/08/17 08:50:27;;;;;;;5.35;2.92;;;17.50;99.90;;;;;;4977550;28;94038;-33
2023/08/17 08:53:00;;;;;;;6.97;3.65;;;17.50;99.90;;;;;;4977829;28;94640;-31
2023/08/17 08:55:29;;;;;;;4.22;2.28;;;17.50;99.90;;;;;;4987910;28;93042;-33
2023/08/17 08:57:56;;;;;;;4.93;3.15;;;17.50;99.90;;;;;;4988688;28;97104;-34
2023/08/17 09:00:24;;;;;;;3.85;2.80;;;17.60;99.90;;;;;;4976667;28;95292;-31
2023/08/17 09:02:51;;;;;;;4.53;2.55;;;17.60;99.90;;;;;;4992653;28;93831;-35
2023/08/17 09:05:17;;;;;;;3.00;2.58;;;17.60;99.90;;;;;;4994484;28;95217;-37
2023/08/17 09:07:43;;;;;;;12.20;2.80;;;17.50;99.90;;;;;;4993937;28;94060;-34
2023/08/17 09:10:09;;;;;;;2.90;2.38;;;17.60;99.90;;;;;;4993663;28;95278;-31
2023/08/17 09:12:35;;;;;;;4.22;3.20;;;17.60;99.90;;;;;;4995147;28;93954;-34
2023/08/17 09:15:01;;;;;;;10.32;3.03;;;17.70;99.90;;;;;;4994859;28;91439;-32
2023/08/17 09:17:28;;;;;;;6.28;2.55;;;17.70;99.90;;;;;;4994707;28;95875;-33
2023/08/17 09:19:54;;;;;;;3.20;2.90;;;17.80;99.90;;;;;;4994149;28;94404;-34
2023/08/17 09:22:24;;;;;;;2.97;2.38;;;17.90;99.90;;;;;;4993889;28;94086;-32
2023/08/17 09:24:50;;;;;;;4.75;2.55;;;17.90;99.90;;;;;;4985708;28;94392;-33
2023/08/17 09:27:16;;;;;;;5.47;3.08;;;18.00;99.90;;;;;;4993784;28;94707;-31
2023/08/17 09:29:48;;;;;;;2.65;2.45;;;18.00;99.90;;;;;;4985785;28;94898;-33
2023/08/17 09:32:16;;;;;;;6.03;2.55;;;17.90;99.90;;;;;;4994112;28;95426;-32
2023/08/17 09:34:43;;;;;;;5.15;2.10;;;17.90;99.90;;;;;;4995091;28;93785;-36
2023/08/17 09:37:12;;;;;;;4.87;3.50;;;18.00;99.90;;;;;;4994089;28;94666;-32
2023/08/17 09:39:37;;;;;;;;;;;18.00;99.90;;;;;;4995480;28;94328;-34
2023/08/17 09:42:03;;;;;;;3.17;2.40;;;18.10;99.90;;;;;;4996210;28;93199;-32
2023/08/17 09:44:29;;;;;;;3.35;2.53;;;18.10;99.90;;;;;;4994843;28;94461;-31
2023/08/17 09:46:58;;;;;;;8.23;3.58;;;18.20;99.90;;;;;;4993616;28;96697;-33
2023/08/17 09:49:31;;;;;;;3.67;3.08;;;18.10;99.90;;;;;;4993981;28;95699;-32
2023/08/17 09:52:00;;;;;;;7.13;3.58;;;18.20;99.90;;;;;;4993743;28;93828;-31
2023/08/17 09:54:30;;;;;;;4.15;3.75;;;18.20;99.90;;;;;;4993614;28;93006;-36
2023/08/17 09:56:58;;;;;;;8.90;3.45;;;18.20;99.90;;;;;;4994310;28;96241;-32
2023/08/17 09:59:25;;;;;;;4.05;2.90;;;18.20;99.90;;;;;;4992912;28;95872;-34
2023/08/17 10:01:51;;;;;;;3.22;2.92;;;18.10;99.90;;;;;;4968477;28;93129;-36
2023/08/17 10:04:24;;;;;;;3.63;3.33;;;18.10;99.90;;;;;;4976218;28;91427;-34
2023/08/17 10:06:59;;;;;;;8.75;3.13;;;18.10;99.90;;;;;;4987018;28;94314;-33
2023/08/17 10:09:28;;;;;;;6.32;2.97;;;18.10;99.90;;;;;;4982228;28;94751;-34
2023/08/17 10:11:57;;;;;;;5.22;3.20;;;18.10;99.90;;;;;;4979471;28;94512;-31
2023/08/17 10:14:30;;;;;;;7.05;3.33;;;18.10;99.90;;;;;;4973202;28;94652;-33
2023/08/17 10:17:05;;;;;;;3.88;3.58;;;18.10;99.90;;;;;;4973795;28;94251;-36
2023/08/17 10:19:43;;;;;;;7.38;3.65;;;18.10;99.90;;;;;;4984111;28;94239;-35
2023/08/17 10:22:14;;;;;;;5.85;3.53;;;18.10;99.90;;;;;;4991873;28;94830;-35
2023/08/17 10:24:42;;;;;;;5.75;4.25;;;18.20;99.90;;;;;;4993617;28;93740;-34
2023/08/17 10:27:10;;;;;;;9.15;4.43;;;18.20;99.90;;;;;;4961370;28;94397;-36
2023/08/17 10:29:38;;;;;;;5.05;3.30;;;18.20;99.90;;;;;;4992491;28;94341;-32
2023/08/17 10:32:07;;;;;;;4.07;3.67;;;18.30;99.90;;;;;;4994139;28;94502;-35
2023/08/17 10:34:35;;;;;;;6.07;4.07;;;18.30;99.90;;;;;;4993585;28;94291;-37
2023/08/17 10:37:01;;;;;;;6.97;4.43;;;18.30;99.90;;;;;;4993571;28;95341;-34
2023/08/17 10:39:28;;;;;;;6.30;4.40;;;18.30;99.90;;;;;;4983407;28;95332;-33
2023/08/17 10:41:55;;;;;;;4.72;4.25;;;18.40;99.90;;;;;;4987060;28;92707;-35
2023/08/17 10:44:42;;;;;;;4.97;4.13;;;18.40;99.90;;;;;;4966443;28;92796;-34
2023/08/17 10:47:22;;;;;;;4.70;4.30;;;18.40;99.90;;;;;;4973891;28;94800;-31
2023/08/17 10:49:58;;;;;;;4.63;4.20;;;18.40;99.90;;;;;;4974193;28;94496;-32
2023/08/17 10:52:32;;;;;;;9.52;4.45;;;18.50;99.90;;;;;;4984558;28;93756;-32
2023/08/17 10:55:05;;;;;;;4.72;4.32;;;18.50;99.90;;;;;;4976116;28;92488;-37
2023/08/17 10:57:32;;;;;;;6.38;5.75;;;18.50;99.90;;;;;;4973474;28;94612;-30
2023/08/17 11:00:31;;;;;;;5.70;4.93;;;18.60;99.90;;;;;;4980221;28;95480;-33
2023/08/17 11:03:05;;;;;;;6.03;5.43;;;18.60;99.90;;;;;;5005148;28;94855;-34
2023/08/17 11:05:46;;;;;;;5.85;5.28;;;18.60;99.90;;;;;;4993305;28;93875;-32
2023/08/17 11:08:34;;;;;;;6.43;5.50;;;18.70;99.90;;;;;;4992991;28;94413;-32
2023/08/17 11:11:07;;;;;;;7.95;5.03;;;18.70;99.90;;;;;;4993143;28;94112;-32
2023/08/17 11:13:38;;;;;;;7.80;5.88;;;18.80;99.90;;;;;;4993527;28;94156;-33
2023/08/17 11:16:05;;;;;;;6.00;5.45;;;18.90;99.90;;;;;;4992367;28;92669;-35
2023/08/17 11:18:32;;;;;;;8.35;6.45;;;19.00;99.90;;;;;;4992347;28;95570;-32
2023/08/17 11:20:58;;;;;;;8.40;6.10;;;19.10;99.90;;;;;;4992266;28;94448;-36
2023/08/17 11:23:24;;;;;;;5.82;5.22;;;19.10;99.90;;;;;;4993412;28;94239;-33
2023/08/17 11:25:51;;;;;;;6.22;5.63;;;19.00;99.90;;;;;;4992767;28;93899;-37
2023/08/17 11:28:17;;;;;;;8.10;6.10;;;19.10;99.90;;;;;;4992567;28;95779;-35
2023/08/17 11:30:43;;;;;;;9.52;6.55;;;19.10;99.90;;;;;;4992055;28;95351;-33
2023/08/17 11:33:09;;;;;;;7.75;5.70;;;19.20;99.90;;;;;;4993273;28;92978;-37
2023/08/17 11:35:37;;;;;;;6.47;5.85;;;19.20;99.90;;;;;;4980812;28;93222;-33
2023/08/17 11:38:03;;;;;;;7.53;5.73;;;19.20;99.90;;;;;;4994320;28;93876;-32
2023/08/17 11:40:29;;;;;;;7.85;5.55;;;19.30;99.90;;;;;;4995288;28;94564;-34
2023/08/17 11:42:55;;;;;;;6.35;5.85;;;19.30;99.90;;;;;;4996936;28;92956;-32
2023/08/17 11:45:21;;;;;;;6.40;5.80;;;19.30;99.90;;;;;;4995532;28;93400;-33
2023/08/17 11:47:47;;;;;;;7.35;6.18;;;19.40;99.90;;;;;;4978038;28;94522;-32
2023/08/17 11:50:14;;;;;;;6.18;5.68;;;19.50;99.90;;;;;;4995802;28;94712;-33
2023/08/17 11:52:40;;;;;;;7.07;5.55;;;19.50;99.90;;;;;;4996101;28;95457;-32
2023/08/17 11:55:08;;;;;;;6.68;6.07;;;19.40;99.90;;;;;;4995522;28;94528;-33
2023/08/17 11:57:34;;;;;;;6.45;5.90;;;19.40;99.90;;;;;;4995298;28;95293;-30
2023/08/17 12:00:03;;;;;;;11.93;7.30;;;19.40;99.90;;;;;;4994971;28;94481;-33
2023/08/17 12:02:30;;;;;;;6.78;6.13;;;19.40;99.90;;;;;;4995863;28;93140;-33
2023/08/17 12:04:56;;;;;;;8.32;5.80;;;19.40;99.90;;;;;;4995895;28;93360;-33
2023/08/17 12:07:25;;;;;;;6.63;6.03;;;19.40;99.90;;;;;;4991521;28;94482;-35
2023/08/17 12:09:52;;;;;;;8.43;6.47;;;19.40;99.90;;;;;;4976436;28;94844;-30
2023/08/17 12:12:28;;;;;;;7.07;6.57;;;19.40;99.90;;;;;;4981869;28;93630;-35
2023/08/17 12:14:54;;;;;;;10.05;6.40;;;19.40;99.90;;;;;;4984282;28;93293;-33
2023/08/17 12:17:20;;;;;;;10.35;6.18;;;19.40;99.90;;;;;;4982078;28;95637;-36
2023/08/17 12:19:53;;;;;;;7.28;6.55;;;19.40;99.90;;;;;;4983341;28;95355;-35
2023/08/17 12:22:19;;;;;;;6.32;5.82;;;19.40;99.90;;;;;;4977006;28;93147;-32
2023/08/17 12:24:44;;;;;;;7.53;6.82;;;19.50;99.90;;;;;;4990128;28;92869;-32
2023/08/17 12:27:10;;;;;;;7.35;6.55;;;19.40;99.90;;;;;;4975640;28;94466;-35
2023/08/17 12:29:49;;;;;;;8.85;7.40;;;19.40;99.90;;;;;;4976014;28;95036;-32
2023/08/17 12:32:17;;;;;;;7.53;6.38;;;19.30;99.90;;;;;;4975927;28;93158;-33
2023/08/17 12:34:42;;;;;;;7.30;6.63;;;19.20;99.90;;;;;;4975994;28;92905;-35
2023/08/17 12:37:10;;;;;;;6.13;5.53;;;19.20;99.90;;;;;;4979808;28;94811;-34
2023/08/17 12:39:36;;;;;;;6.95;6.32;;;19.30;99.90;;;;;;4994365;28;94400;-37
2023/08/17 12:42:02;;;;;;;7.55;6.20;;;19.30;99.90;;;;;;4992660;28;94115;-34
2023/08/17 12:44:28;;;;;;;8.40;7.18;;;19.20;99.90;;;;;;4992376;28;93577;-33